Time;durP1;ratioP1;P1;durP2;ratioP2;P2;SDS_P1;SDS_P2;PMS_P1;PMS_P2;Temp;Humidity;BMP_temperature;BMP_pressure;BME280_temperature;BME280_humidity;BME280_pressure;Samples;Min_cycle;Max_cycle;Signal;HPM_P1;HPM_P2
2021/11/10 00:00:46;;;;;;;12.75;7.93;;;;;;;-149.78;100.00;50381.47;5070534;28;20452;-66
2021/11/10 00:03:12;;;;;;;13.50;8.60;;;;;;;-149.78;100.00;50420.59;5064718;28;20104;-66
2021/11/10 00:05:39;;;;;;;13.60;8.48;;;;;;;-149.78;100.00;50395.16;5061061;28;20024;-66
2021/11/10 00:08:05;;;;;;;14.82;8.40;;;;;;;-149.78;100.00;50375.63;5051704;28;20379;-66
2021/11/10 00:10:32;;;;;;;12.70;8.40;;;;;;;-149.78;100.00;50385.38;5052630;28;20052;-67
2021/11/10 00:15:44;;;;;;;13.93;8.45;;;;;;;-149.78;100.00;50377.56;5050731;28;20041;-66
2021/11/10 00:18:09;;;;;;;15.02;8.05;;;;;;;-149.78;100.00;50361.91;5051787;28;20036;-67
2021/11/10 00:20:35;;;;;;;16.33;8.30;;;;;;;-149.78;100.00;50432.31;5060370;28;20036;-67
2021/11/10 00:23:01;;;;;;;12.63;7.45;;;;;;;-149.78;100.00;50416.69;5066801;28;20036;-67
2021/11/10 00:25:26;;;;;;;14.68;8.13;;;;;;;-149.78;100.00;50365.84;5052330;28;20028;-67
2021/11/10 00:27:52;;;;;;;11.63;7.40;;;;;;;-149.78;100.00;50354.09;5054542;28;20028;-67
2021/11/10 00:30:17;;;;;;;14.00;7.95;;;;;;;-149.78;100.00;50395.16;5060636;28;20033;-67
2021/11/10 00:32:43;;;;;;;12.07;7.72;;;;;;;-149.78;100.00;50393.22;5064641;28;20087;-67
2021/11/10 00:35:08;;;;;;;13.00;7.88;;;;;;;-149.78;100.00;50369.75;5051801;28;20151;-67
2021/11/10 00:37:34;;;;;;;12.77;7.85;;;;;;;-149.78;100.00;50381.47;5061522;28;20124;-67
2021/11/10 00:40:00;;;;;;;11.77;7.53;;;;;;;-149.78;100.00;50410.81;5064189;28;20036;-67
2021/11/10 00:42:26;;;;;;;12.63;6.97;;;;;;;-149.78;100.00;50377.56;5055452;28;20039;-67
2021/11/10 00:44:51;;;;;;;14.35;7.72;;;;;;;-149.78;100.00;50377.56;5069018;28;20372;-67
2021/11/10 00:47:17;;;;;;;12.75;6.95;;;;;;;-149.78;100.00;50397.13;5064069;28;20114;-67
2021/11/10 00:49:43;;;;;;;12.75;7.05;;;;;;;-149.78;100.00;50371.69;5056732;28;20036;-67
2021/11/10 00:52:09;;;;;;;12.65;6.97;;;;;;;-149.78;100.00;50354.09;5055446;28;20047;-67
2021/11/10 00:54:34;;;;;;;13.35;6.43;;;;;;;-149.78;100.00;50391.25;5059675;28;20029;-67
2021/11/10 00:57:00;;;;;;;12.48;6.75;;;;;;;-149.78;100.00;50373.66;5060373;28;20048;-67
2021/11/10 00:59:26;;;;;;;9.95;6.03;;;;;;;-149.78;100.00;50369.75;5062495;28;20123;-67
2021/11/10 01:01:52;;;;;;;11.75;6.60;;;;;;;-149.78;100.00;50381.47;5055646;28;20036;-67
2021/11/10 01:04:18;;;;;;;11.07;6.57;;;;;;;-149.78;100.00;50383.44;5071677;28;20032;-67
2021/11/10 01:06:43;;;;;;;12.15;6.22;;;;;;;-149.78;100.00;50401.03;5060111;28;20029;-67
2021/11/10 01:09:16;;;;;;;5.35;3.50;;;;;;;-149.78;100.00;50408.84;5069908;28;20028;-67
2021/11/10 01:11:43;;;;;;;3.20;2.45;;;;;;;-149.78;100.00;50373.66;5068660;28;20433;-67
2021/11/10 01:14:09;;;;;;;3.25;2.35;;;;;;;-149.78;100.00;50397.13;5063174;28;20118;-67
2021/11/10 01:16:35;;;;;;;2.67;1.77;;;;;;;-149.78;100.00;50365.84;5066632;28;20051;-67
2021/11/10 01:19:01;;;;;;;2.45;1.40;;;;;;;-149.78;100.00;50424.50;5064144;28;20040;-67
2021/11/10 01:21:27;;;;;;;1.95;1.40;;;;;;;-149.78;100.00;50365.84;5066355;28;20044;-67
2021/11/10 01:23:53;;;;;;;1.90;1.42;;;;;;;-149.78;100.00;50404.94;5064806;28;20112;-67
2021/11/10 01:26:19;;;;;;;1.98;1.20;;;;;;;-149.78;100.00;50389.31;5063293;28;20131;-67
2021/11/10 01:28:45;;;;;;;1.50;1.20;;;;;;;-149.78;100.00;50410.81;5058582;28;20037;-67
2021/11/10 01:31:11;;;;;;;1.13;1.00;;;;;;;-149.78;100.00;50401.03;5058703;28;20902;-67
2021/11/10 01:33:37;;;;;;;1.90;1.10;;;;;;;-149.78;100.00;50389.31;5069040;28;20380;-67
2021/11/10 01:36:03;;;;;;;0.63;0.63;;;;;;;-149.78;100.00;50373.66;5071505;28;20433;-67
2021/11/10 01:38:28;;;;;;;1.33;0.70;;;;;;;-149.78;100.00;50391.25;5062676;28;20040;-67
2021/11/10 01:40:54;;;;;;;0.60;0.45;;;;;;;-149.78;100.00;50391.25;5070732;28;20419;-67
2021/11/10 01:43:20;;;;;;;0.38;0.35;;;;;;;-149.78;100.00;50420.59;5071718;28;20123;-67
2021/11/10 01:45:46;;;;;;;1.58;0.35;;;;;;;-149.78;100.00;50373.66;5062535;28;20120;-67
2021/11/10 01:48:13;;;;;;;0.30;0.30;;;;;;;-149.78;100.00;50397.13;5057887;28;20482;-67
2021/11/10 01:50:39;;;;;;;0.38;0.38;;;;;;;-149.78;100.00;50404.94;5059152;28;20033;-67
2021/11/10 01:53:05;;;;;;;0.45;0.30;;;;;;;-149.78;100.00;50404.94;5063325;28;20030;-67
2021/11/10 01:55:31;;;;;;;0.85;0.20;;;;;;;-149.78;100.00;50403.00;5071575;28;20554;-67
2021/11/10 01:57:57;;;;;;;0.25;0.25;;;;;;;-149.78;100.00;50404.94;5069444;28;20025;-67
2021/11/10 02:00:31;;;;;;;0.35;0.30;;;;;;;-149.78;100.00;50385.38;5071677;28;20540;-67
2021/11/10 02:02:58;;;;;;;0.60;0.32;;;;;;;-149.78;100.00;50406.91;5066933;28;20376;-67
2021/11/10 02:05:23;;;;;;;2.63;0.40;;;;;;;-149.78;100.00;50428.41;5068736;28;20033;-67
2021/11/10 02:07:50;;;;;;;0.60;0.30;;;;;;;-149.78;100.00;50436.25;5068515;28;20548;-67
2021/11/10 02:10:19;;;;;;;0.45;0.38;;;;;;;-149.78;100.00;50381.47;5055006;28;20029;-67
2021/11/10 02:12:47;;;;;;;0.30;0.20;;;;;;;-149.78;100.00;50397.13;5068312;28;20457;-67
2021/11/10 02:15:16;;;;;;;1.00;0.30;;;;;;;-149.78;100.00;50424.50;5053978;28;20429;-67
2021/11/10 02:17:46;;;;;;;0.35;0.35;;;;;;;-149.78;100.00;50397.13;5067476;28;20017;-67
2021/11/10 02:20:12;;;;;;;1.35;0.30;;;;;;;-149.78;100.00;50432.31;5063227;28;20025;-67
2021/11/10 02:22:39;;;;;;;0.77;0.40;;;;;;;-149.78;100.00;50428.41;5063705;28;20396;-67
2021/11/10 02:25:08;;;;;;;0.70;0.30;;;;;;;-149.78;100.00;50377.56;5065175;28;20579;-64
2021/11/10 02:27:35;;;;;;;0.40;0.30;;;;;;;-149.78;100.00;50424.50;5066673;28;20476;-64
2021/11/10 02:30:08;;;;;;;0.45;0.22;;;;;;;-149.78;100.00;50363.88;5063564;28;20032;-64
2021/11/10 02:32:35;;;;;;;0.80;0.40;;;;;;;-149.78;100.00;50369.75;5063866;28;20112;-64
2021/11/10 02:35:00;;;;;;;0.93;0.40;;;;;;;-149.78;100.00;50401.03;5069164;28;20040;-64
2021/11/10 02:37:26;;;;;;;0.52;0.35;;;;;;;-149.78;100.00;50447.97;5063063;28;20099;-64
2021/11/10 02:39:52;;;;;;;0.43;0.30;;;;;;;-149.78;100.00;50389.31;5055300;28;20542;-64
2021/11/10 02:42:19;;;;;;;1.38;0.40;;;;;;;-149.78;100.00;50412.78;5054043;28;20538;-64
2021/11/10 02:44:51;;;;;;;0.52;0.28;;;;;;;-149.78;100.00;50424.50;5064738;28;20364;-64
2021/11/10 02:47:18;;;;;;;0.25;0.25;;;;;;;-149.78;100.00;50416.69;5054369;28;20076;-64
2021/11/10 02:49:44;;;;;;;0.30;0.30;;;;;;;-149.78;100.00;50451.88;5068008;28;20032;-64
2021/11/10 02:52:16;;;;;;;0.82;0.32;;;;;;;-149.78;100.00;50377.56;5064526;28;20037;-64
2021/11/10 02:54:54;;;;;;;0.17;0.17;;;;;;;-149.78;100.00;50395.16;5065526;28;20047;-64
2021/11/10 02:57:21;;;;;;;1.10;0.30;;;;;;;-149.78;100.00;50420.59;5060753;28;20055;-64
2021/11/10 02:59:47;;;;;;;0.77;0.20;;;;;;;-149.78;100.00;50426.47;5068075;28;20036;-64
2021/11/10 03:02:13;;;;;;;0.40;0.20;;;;;;;-149.78;100.00;50389.31;5062381;28;20044;-64
2021/11/10 03:04:46;;;;;;;0.30;0.30;;;;;;;-149.78;100.00;50426.47;5058016;28;20064;-64
2021/11/10 03:07:12;;;;;;;;;;;;;;;-149.78;100.00;50397.13;5065427;28;20464;-64
2021/11/10 03:09:42;;;;;;;0.30;0.30;;;;;;;-149.78;100.00;50416.69;5072269;28;19912;-64
2021/11/10 03:12:11;;;;;;;2.03;0.22;;;;;;;-149.78;100.00;50397.13;5067689;28;20517;-64
2021/11/10 03:14:39;;;;;;;0.68;0.30;;;;;;;-149.78;100.00;50397.13;5062774;28;20484;-64
2021/11/10 03:17:08;;;;;;;0.57;0.40;;;;;;;-149.78;100.00;50432.31;5068907;28;20036;-64
2021/11/10 03:19:34;;;;;;;0.60;0.50;;;;;;;-149.78;100.00;50455.81;5069941;28;20036;-64
2021/11/10 03:22:01;;;;;;;1.52;0.47;;;;;;;-149.78;100.00;50440.16;5065184;28;20036;-64
2021/11/10 03:24:27;;;;;;;0.43;0.30;;;;;;;-149.78;100.00;50428.41;5081172;28;20032;-64
2021/11/10 03:26:53;;;;;;;3.28;0.68;;;;;;;-149.78;100.00;50385.38;5054508;28;20040;-64
2021/11/10 03:29:20;;;;;;;1.35;0.77;;;;;;;-149.78;100.00;50434.28;5068683;28;20036;-64
2021/11/10 03:31:45;;;;;;;2.42;0.70;;;;;;;-149.78;100.00;50420.59;5069906;28;20470;-64
2021/11/10 03:34:12;;;;;;;5.55;0.90;;;;;;;-149.78;100.00;50424.50;5063214;28;20033;-64
2021/11/10 03:36:39;;;;;;;4.28;0.70;;;;;;;-149.78;100.00;50414.72;5061079;28;20475;-64
2021/11/10 03:39:07;;;;;;;2.58;0.95;;;;;;;-149.78;100.00;50397.13;5061882;28;20036;-64
2021/11/10 03:41:33;;;;;;;1.00;0.70;;;;;;;-149.78;100.00;50416.69;5069546;28;20024;-64
2021/11/10 03:43:58;;;;;;;5.20;0.90;;;;;;;-149.78;100.00;50397.13;5067238;28;20051;-64
2021/11/10 03:46:24;;;;;;;3.72;1.20;;;;;;;-149.78;100.00;50420.59;5071289;28;20067;-64
2021/11/10 03:48:50;;;;;;;4.57;1.02;;;;;;;-149.78;100.00;50451.88;5063903;28;20380;-64
2021/11/10 03:51:17;;;;;;;2.40;0.90;;;;;;;-149.78;100.00;50447.97;5051899;28;20061;-64
2021/11/10 03:53:43;;;;;;;3.70;0.80;;;;;;;-149.78;100.00;50438.19;5057514;28;20029;-64
2021/11/10 03:56:09;;;;;;;3.67;1.10;;;;;;;-149.78;100.00;50424.50;5059039;28;20033;-64
2021/11/10 03:58:35;;;;;;;6.05;0.98;;;;;;;-149.78;100.00;50397.13;5067234;28;20345;-64
2021/11/10 04:01:01;;;;;;;6.78;2.13;;;;;;;-149.78;100.00;50389.31;5059140;28;20560;-64
2021/11/10 04:03:28;;;;;;;1.48;0.90;;;;;;;-149.78;100.00;50432.31;5053089;28;20128;-64
2021/11/10 04:05:53;;;;;;;3.95;0.88;;;;;;;-149.78;100.00;50412.78;5052155;28;20029;-64
2021/11/10 04:08:19;;;;;;;3.25;0.90;;;;;;;-149.78;100.00;50410.81;5063061;28;20032;-64
2021/11/10 04:10:45;;;;;;;3.30;1.02;;;;;;;-149.78;100.00;50447.97;5073463;28;20036;-64
2021/11/10 04:13:11;;;;;;;6.75;1.00;;;;;;;-149.78;100.00;50428.41;5067303;28;20503;-64
2021/11/10 04:15:38;;;;;;;2.38;0.88;;;;;;;-149.78;100.00;50481.22;5065145;28;20112;-64
2021/11/10 04:18:03;;;;;;;3.45;1.60;;;;;;;-149.78;100.00;50397.13;5056982;28;20391;-64
2021/11/10 04:20:30;;;;;;;2.22;0.95;;;;;;;-149.78;100.00;50420.59;5056155;28;20032;-64
2021/11/10 04:22:55;;;;;;;4.60;0.85;;;;;;;-149.78;100.00;50440.16;5059659;28;20372;-64
2021/11/10 04:25:21;;;;;;;3.42;0.88;;;;;;;-149.78;100.00;50440.16;5056483;28;20048;-64
2021/11/10 04:27:47;;;;;;;1.13;0.70;;;;;;;-149.78;100.00;50406.91;5057710;28;20047;-64
2021/11/10 04:30:13;;;;;;;0.93;0.70;;;;;;;-149.78;100.00;50428.41;5057548;28;20033;-64
2021/11/10 04:32:41;;;;;;;2.95;0.90;;;;;;;-149.78;100.00;50412.78;5051426;28;20388;-64
2021/11/10 04:35:09;;;;;;;1.60;0.70;;;;;;;-149.78;100.00;50381.47;5062553;28;20028;-64
2021/11/10 04:37:36;;;;;;;2.00;0.70;;;;;;;-149.78;100.00;50385.38;5071754;28;20372;-64
2021/11/10 04:40:03;;;;;;;0.68;0.50;;;;;;;-149.78;100.00;50420.59;5071259;28;20045;-64
2021/11/10 04:42:29;;;;;;;1.10;0.57;;;;;;;-149.78;100.00;50436.25;5056305;28;20043;-64
2021/11/10 04:45:01;;;;;;;1.83;0.82;;;;;;;-149.78;100.00;50428.41;5071324;28;20048;-64
2021/11/10 04:47:27;;;;;;;;;;;;;;;-149.78;100.00;50475.34;5059296;28;20111;-64
2021/11/10 04:49:52;;;;;;;0.88;0.70;;;;;;;-149.78;100.00;50440.16;5056686;28;19951;-64
2021/11/10 04:52:19;;;;;;;0.77;0.70;;;;;;;-149.78;100.00;50401.03;5054942;28;20040;-64
2021/11/10 04:54:44;;;;;;;1.70;0.65;;;;;;;-149.78;100.00;50416.69;5068706;28;20036;-64
2021/11/10 04:57:10;;;;;;;2.08;0.70;;;;;;;-149.78;100.00;50455.81;5071402;28;20040;-64
2021/11/10 04:59:36;;;;;;;2.72;1.00;;;;;;;-149.78;100.00;50408.84;5052263;28;20036;-64
2021/11/10 05:04:31;;;;;;;5.35;1.20;;;;;;;-149.78;100.00;50436.25;5056393;28;20040;-64
2021/11/10 05:06:58;;;;;;;1.30;0.85;;;;;;;-149.78;100.00;50393.22;5066237;28;20032;-64
2021/11/10 05:09:24;;;;;;;1.42;0.85;;;;;;;-149.78;100.00;50438.19;5058011;28;20552;-64
2021/11/10 05:11:50;;;;;;;5.13;1.02;;;;;;;-149.78;100.00;50397.13;5065348;28;20075;-64
2021/11/10 05:14:16;;;;;;;1.25;0.90;;;;;;;-149.78;100.00;50408.84;5052176;28;20041;-64
2021/11/10 05:16:42;;;;;;;3.30;1.52;;;;;;;-149.78;100.00;50457.75;5078536;28;20029;-64
2021/11/10 05:19:08;;;;;;;1.77;0.82;;;;;;;-149.78;100.00;50432.31;5060744;28;20040;-64
2021/11/10 05:21:33;;;;;;;5.40;1.20;;;;;;;-149.78;100.00;50403.00;5051058;28;20033;-64
2021/11/10 05:23:59;;;;;;;2.13;0.90;;;;;;;-149.78;100.00;50408.84;5081898;28;20569;-64
2021/11/10 05:26:24;;;;;;;3.40;1.10;;;;;;;-149.78;100.00;50432.31;5062729;28;20052;-64
2021/11/10 05:28:50;;;;;;;2.20;1.00;;;;;;;-149.78;100.00;50404.94;5059683;28;20036;-64
2021/11/10 05:31:16;;;;;;;2.15;0.98;;;;;;;-149.78;100.00;50440.16;5068973;28;20038;-64
2021/11/10 05:33:42;;;;;;;2.75;0.90;;;;;;;-149.78;100.00;50416.69;5068385;28;20128;-64
2021/11/10 05:36:07;;;;;;;2.00;0.93;;;;;;;-149.78;100.00;50412.78;5065486;28;20039;-64
2021/11/10 05:38:34;;;;;;;5.15;1.00;;;;;;;-149.78;100.00;50408.84;5067484;28;20033;-64
2021/11/10 05:41:00;;;;;;;1.40;0.80;;;;;;;-149.78;100.00;50459.72;5050787;28;20345;-64
2021/11/10 05:43:25;;;;;;;1.42;0.80;;;;;;;-149.78;100.00;50404.94;5060418;28;20043;-64
2021/11/10 05:45:51;;;;;;;2.33;0.95;;;;;;;-149.78;100.00;50422.56;5049752;28;20085;-64
2021/11/10 05:48:17;;;;;;;1.95;0.90;;;;;;;-149.78;100.00;50428.41;5057607;28;20083;-64
2021/11/10 05:50:43;;;;;;;2.78;0.85;;;;;;;-149.78;100.00;50430.38;5063299;28;20503;-64
2021/11/10 05:53:09;;;;;;;2.17;1.20;;;;;;;-149.78;100.00;50428.41;5067057;28;20043;-64
2021/11/10 05:55:35;;;;;;;3.63;1.10;;;;;;;-149.78;100.00;50408.84;5057718;28;20401;-64
2021/11/10 05:58:01;;;;;;;3.15;1.00;;;;;;;-149.78;100.00;50426.47;5056963;28;20079;-64
2021/11/10 06:00:27;;;;;;;1.73;0.80;;;;;;;-149.78;100.00;50432.31;5059471;28;20115;-64
2021/11/10 06:02:54;;;;;;;3.13;1.27;;;;;;;-149.78;100.00;50426.47;5066436;28;20029;-64
2021/11/10 06:05:20;;;;;;;2.33;0.80;;;;;;;-149.78;100.00;50432.31;5062649;28;20036;-64
2021/11/10 06:07:46;;;;;;;4.38;1.13;;;;;;;-149.78;100.00;50424.50;5067199;28;20047;-65
2021/11/10 06:10:14;;;;;;;3.92;0.93;;;;;;;-149.78;100.00;50428.41;5061609;28;20048;-64
2021/11/10 06:12:40;;;;;;;4.30;0.90;;;;;;;-149.78;100.00;50416.69;5074005;28;20368;-64
2021/11/10 06:15:07;;;;;;;3.55;1.50;;;;;;;-149.78;100.00;50451.88;5066105;28;20043;-64
2021/11/10 06:17:32;;;;;;;0.95;0.85;;;;;;;-149.78;100.00;50424.50;5059862;28;20452;-64
2021/11/10 06:20:01;;;;;;;1.92;0.90;;;;;;;-149.78;100.00;50436.25;5063452;28;20123;-64
2021/11/10 06:22:26;;;;;;;2.15;1.08;;;;;;;-149.78;100.00;50412.78;5056953;28;20033;-64
2021/11/10 06:24:52;;;;;;;3.72;1.10;;;;;;;-149.78;100.00;50451.88;5061906;28;20028;-64
2021/11/10 06:27:19;;;;;;;5.00;1.23;;;;;;;-149.78;100.00;50449.94;5057695;28;20057;-64
2021/11/10 06:29:44;;;;;;;3.33;0.95;;;;;;;-149.78;100.00;50432.31;5058271;28;20036;-64
2021/11/10 06:32:10;;;;;;;5.30;1.10;;;;;;;-149.78;100.00;50451.88;5056210;28;20046;-64
2021/11/10 06:34:36;;;;;;;2.13;0.80;;;;;;;-149.78;100.00;50365.84;5059776;28;20045;-64
2021/11/10 06:37:02;;;;;;;3.30;1.02;;;;;;;-149.78;100.00;50412.78;5072452;28;20099;-64
2021/11/10 06:39:28;;;;;;;3.58;0.80;;;;;;;-149.78;100.00;50416.69;5073998;28;20365;-64
2021/11/10 06:41:54;;;;;;;5.07;1.50;;;;;;;-149.78;100.00;50420.59;5070681;28;20032;-64
2021/11/10 06:44:19;;;;;;;2.67;1.10;;;;;;;-149.78;100.00;50424.50;5072688;28;20120;-64
2021/11/10 06:46:45;;;;;;;5.38;1.17;;;;;;;-149.78;100.00;50414.72;5070436;28;20028;-64
2021/11/10 06:49:11;;;;;;;1.08;0.98;;;;;;;-149.78;100.00;50410.81;5070201;28;20144;-64
2021/11/10 06:51:37;;;;;;;4.85;1.20;;;;;;;-149.78;100.00;50404.94;5070861;28;20044;-64
2021/11/10 06:54:02;;;;;;;4.28;0.93;;;;;;;-149.78;100.00;50430.38;5071121;28;20041;-64
2021/11/10 06:56:28;;;;;;;5.80;1.10;;;;;;;-149.78;100.00;50428.41;5068588;28;20536;-64
2021/11/10 06:58:53;;;;;;;3.88;1.20;;;;;;;-149.78;100.00;50414.72;5069184;28;20032;-63
2021/11/10 07:01:19;;;;;;;2.05;1.00;;;;;;;-149.78;100.00;50422.56;5069851;28;20036;-64
2021/11/10 07:03:45;;;;;;;4.70;1.40;;;;;;;-149.78;100.00;50428.41;5069993;28;20043;-63
2021/11/10 07:06:11;;;;;;;2.53;1.20;;;;;;;-149.78;100.00;50424.50;5069664;28;20029;-63
2021/11/10 07:08:36;;;;;;;6.10;1.30;;;;;;;-149.78;100.00;50418.63;5068205;28;20461;-63
2021/11/10 07:11:02;;;;;;;6.35;1.52;;;;;;;-149.78;100.00;50395.16;5072833;28;20051;-63
2021/11/10 07:13:29;;;;;;;4.40;1.25;;;;;;;-149.78;100.00;50440.16;5068672;28;20159;-64
2021/11/10 07:15:54;;;;;;;3.65;1.33;;;;;;;-149.78;100.00;50430.38;5067978;28;20116;-63
2021/11/10 07:18:20;;;;;;;5.05;1.85;;;;;;;-149.78;100.00;50420.59;5061663;28;20048;-63
2021/11/10 07:20:45;;;;;;;9.30;2.20;;;;;;;-149.78;100.00;50418.63;5067449;28;20036;-63
2021/11/10 07:23:11;;;;;;;11.05;2.42;;;;;;;-149.78;100.00;50420.59;5071075;28;20483;-63
2021/11/10 07:25:36;;;;;;;9.65;2.83;;;;;;;-149.78;100.00;50438.19;5066116;28;20040;-61
2021/11/10 07:28:02;;;;;;;6.20;2.10;;;;;;;-149.78;100.00;50447.97;5062832;28;20404;-61
2021/11/10 07:30:28;;;;;;;5.05;1.92;;;;;;;-149.78;100.00;50389.31;5059173;28;20033;-61
2021/11/10 07:32:53;;;;;;;5.90;1.95;;;;;;;-149.78;100.00;50451.88;5068687;28;20028;-63
2021/11/10 07:35:19;;;;;;;5.30;1.85;;;;;;;-149.78;100.00;50393.22;5063363;28;20130;-62
2021/11/10 07:37:47;;;;;;;3.00;1.30;;;;;;;-149.78;100.00;50455.81;5071770;28;20070;-62
2021/11/10 07:40:15;;;;;;;4.82;1.38;;;;;;;-149.78;100.00;50453.84;5055985;28;20068;-62
2021/11/10 07:42:41;;;;;;;4.50;1.45;;;;;;;-149.78;100.00;50436.25;5061664;28;20033;-62
2021/11/10 07:45:16;;;;;;;5.65;1.50;;;;;;;-149.78;100.00;50387.34;5065754;28;20486;-62
2021/11/10 07:47:42;;;;;;;7.43;1.35;;;;;;;-149.78;100.00;50391.25;5063054;28;20039;-62
2021/11/10 07:50:12;;;;;;;6.07;1.55;;;;;;;-149.78;100.00;50459.72;5062219;28;20033;-63
2021/11/10 07:52:38;;;;;;;5.28;2.20;;;;;;;-149.78;100.00;50401.03;5053863;28;20032;-62
2021/11/10 07:55:05;;;;;;;8.15;1.80;;;;;;;-149.78;100.00;50389.31;5061857;28;20044;-62
2021/11/10 07:57:30;;;;;;;5.22;1.80;;;;;;;-149.78;100.00;50416.69;5056217;28;20499;-62
2021/11/10 07:59:56;;;;;;;9.48;1.98;;;;;;;-149.78;100.00;50451.88;5067146;28;20028;-61
2021/11/10 08:02:22;;;;;;;5.07;1.65;;;;;;;-149.78;100.00;50379.53;5069046;28;20032;-62
2021/11/10 08:04:48;;;;;;;4.63;1.77;;;;;;;-149.78;100.00;50416.69;5070450;28;20043;-62
2021/11/10 08:07:13;;;;;;;8.40;1.90;;;;;;;-149.78;100.00;50393.22;5063542;28;20056;-62
2021/11/10 08:09:39;;;;;;;7.30;2.33;;;;;;;-149.78;100.00;50447.97;5066735;28;20467;-62
2021/11/10 08:12:05;;;;;;;4.70;2.25;;;;;;;-149.78;100.00;50404.94;5066809;28;20059;-62
2021/11/10 08:14:32;;;;;;;7.55;1.73;;;;;;;-149.78;100.00;50377.56;5063910;28;20475;-63
2021/11/10 08:16:58;;;;;;;4.30;1.70;;;;;;;-149.78;100.00;50385.38;5063481;28;20357;-62
2021/11/10 08:19:25;;;;;;;4.68;1.60;;;;;;;-149.78;100.00;50426.47;5058646;28;20040;-62
2021/11/10 08:21:51;;;;;;;4.32;1.67;;;;;;;-149.78;100.00;50432.31;5068214;28;20033;-62
2021/11/10 08:24:18;;;;;;;6.72;2.53;;;;;;;-149.78;100.00;50399.09;5068118;28;20093;-62
2021/11/10 08:26:43;;;;;;;10.65;2.45;;;;;;;-149.78;100.00;50412.78;5068133;28;20048;-62
2021/11/10 08:29:09;;;;;;;7.80;2.05;;;;;;;-149.78;100.00;50430.38;5069802;28;20040;-62
2021/11/10 08:31:34;;;;;;;12.38;3.97;;;;;;;-149.78;100.00;50412.78;5054807;28;20037;-63
2021/11/10 08:34:00;;;;;;;12.15;2.75;;;;;;;-149.78;100.00;50420.59;5059079;28;20112;-63
2021/11/10 08:36:27;;;;;;;6.07;2.28;;;;;;;-149.78;100.00;50424.50;5064330;28;20024;-63
2021/11/10 08:38:54;;;;;;;6.15;2.30;;;;;;;-149.78;100.00;50436.25;5068722;28;20038;-62
2021/11/10 08:41:21;;;;;;;5.18;2.30;;;;;;;-149.78;100.00;50420.59;5071255;28;20035;-62
2021/11/10 08:43:49;;;;;;;5.60;2.30;;;;;;;-149.78;100.00;50401.03;5069499;28;20047;-62
2021/11/10 08:46:16;;;;;;;9.30;2.85;;;;;;;-149.78;100.00;50420.59;5070343;28;20029;-62
2021/11/10 08:48:42;;;;;;;7.32;2.55;;;;;;;-149.78;100.00;50397.13;5071133;28;20534;-62
2021/11/10 08:51:08;;;;;;;6.32;2.15;;;;;;;-149.78;100.00;50440.16;5056300;28;20472;-62
2021/11/10 08:53:34;;;;;;;9.10;2.75;;;;;;;-149.78;100.00;50414.72;5062780;28;20063;-62
2021/11/10 08:56:01;;;;;;;6.40;2.65;;;;;;;-149.78;100.00;50395.16;5053827;28;20040;-62
2021/11/10 08:58:27;;;;;;;5.13;2.70;;;;;;;-149.78;100.00;50432.31;5052294;28;20021;-62
2021/11/10 09:00:56;;;;;;;8.15;2.30;;;;;;;-149.78;100.00;50428.41;5072309;28;20029;-63
2021/11/10 09:03:23;;;;;;;6.60;2.40;;;;;;;-149.78;100.00;50416.69;5065333;28;20533;-62
2021/11/10 09:05:50;;;;;;;8.65;2.20;;;;;;;-149.78;100.00;50408.84;5054253;28;20472;-62
2021/11/10 09:08:16;;;;;;;7.88;2.92;;;;;;;-149.78;100.00;50387.34;5062030;28;20029;-62
2021/11/10 09:10:43;;;;;;;7.10;1.80;;;;;;;-149.78;100.00;50424.50;5061274;28;20028;-62
2021/11/10 09:13:10;;;;;;;7.25;2.35;;;;;;;-149.78;100.00;50424.50;5054569;28;20040;-62
2021/11/10 09:15:36;;;;;;;5.63;2.03;;;;;;;-149.78;100.00;50424.50;5062910;28;20064;-62
2021/11/10 09:18:06;;;;;;;4.75;2.17;;;;;;;-149.78;100.00;50436.25;5057174;28;20388;-62
2021/11/10 09:20:34;;;;;;;4.82;1.75;;;;;;;-149.78;100.00;50403.00;5058213;28;20025;-62
2021/11/10 09:23:04;;;;;;;7.95;2.40;;;;;;;-149.78;100.00;50436.25;5062607;28;20047;-62
2021/11/10 09:25:31;;;;;;;4.05;1.92;;;;;;;-149.78;100.00;50451.88;5059787;28;20031;-62
2021/11/10 09:27:59;;;;;;;8.80;2.50;;;;;;;-149.78;100.00;50424.50;5070734;28;20041;-62
2021/11/10 09:30:27;;;;;;;4.72;1.95;;;;;;;-149.78;100.00;50416.69;5064421;28;20029;-62
2021/11/10 09:32:54;;;;;;;6.65;2.40;;;;;;;-149.78;100.00;50416.69;5073030;28;20383;-62
2021/11/10 09:35:22;;;;;;;8.23;2.38;;;;;;;-149.78;100.00;50371.69;5063993;28;20044;-62
2021/11/10 09:37:49;;;;;;;6.28;2.20;;;;;;;-149.78;100.00;50404.94;5074469;28;20039;-62
2021/11/10 09:40:18;;;;;;;6.40;2.50;;;;;;;-149.78;100.00;50408.84;5071422;28;20025;-63
2021/11/10 09:42:45;;;;;;;7.18;2.60;;;;;;;-149.78;100.00;50404.94;5069215;28;20060;-62
2021/11/10 09:45:14;;;;;;;8.32;2.53;;;;;;;-149.78;100.00;50401.03;5068272;28;20117;-62
2021/11/10 09:47:41;;;;;;;7.97;2.72;;;;;;;-149.78;100.00;50387.34;5069637;28;20032;-62
2021/11/10 09:50:10;;;;;;;8.73;2.78;;;;;;;-149.78;100.00;50416.69;5074718;28;20111;-62
2021/11/10 09:52:36;;;;;;;6.45;2.40;;;;;;;-149.78;100.00;50397.13;5067910;28;20024;-63
2021/11/10 09:55:05;;;;;;;6.70;2.13;;;;;;;-149.78;100.00;50455.81;5061515;28;20044;-62
2021/11/10 09:57:34;;;;;;;8.53;2.20;;;;;;;-149.78;100.00;50436.25;5062442;28;20033;-62
2021/11/10 10:00:04;;;;;;;8.57;2.03;;;;;;;-149.78;100.00;50408.84;5062382;28;20507;-62
2021/11/10 10:02:30;;;;;;;8.52;2.72;;;;;;;-149.78;100.00;50422.56;5071750;28;20519;-62
2021/11/10 10:04:56;;;;;;;9.52;2.50;;;;;;;-149.78;100.00;50424.50;5070336;28;20056;-62
2021/11/10 10:07:23;;;;;;;10.40;3.53;;;;;;;-149.78;100.00;50404.94;5069787;28;20028;-63
2021/11/10 10:09:49;;;;;;;7.70;2.90;;;;;;;-149.78;100.00;50416.69;5070094;28;20036;-64
2021/11/10 10:12:18;;;;;;;8.07;2.65;;;;;;;-149.78;100.00;50416.69;5071283;28;20037;-64
2021/11/10 10:14:46;;;;;;;14.60;3.10;;;;;;;-149.78;100.00;50420.59;5068428;28;20032;-63
2021/11/10 10:17:56;;;;;;;12.45;2.97;;;;;;;-149.78;100.00;50385.38;5066866;28;20112;-64
2021/11/10 10:20:27;;;;;;;7.75;2.25;;;;;;;-149.78;100.00;50424.50;5068978;28;20032;-64
2021/11/10 10:22:55;;;;;;;7.07;2.63;;;;;;;-149.78;100.00;50430.38;5069733;28;20021;-64
2021/11/10 10:25:33;;;;;;;9.88;2.63;;;;;;;-149.78;100.00;50404.94;5067248;28;20025;-64
2021/11/10 10:27:59;;;;;;;14.20;3.08;;;;;;;-149.78;100.00;50420.59;5069879;28;20040;-64
2021/11/10 10:30:49;;;;;;;5.75;2.67;;;;;;;-149.78;100.00;50432.31;5065969;28;20059;-64
2021/11/10 10:33:17;;;;;;;8.52;2.80;;;;;;;-149.78;100.00;50432.31;5055716;28;20035;-63
2021/11/10 10:35:51;;;;;;;8.35;2.47;;;;;;;-149.78;100.00;50401.03;5066689;28;20127;-64
2021/11/10 10:38:20;;;;;;;4.13;2.33;;;;;;;-149.78;100.00;50354.09;5074122;28;20399;-64
2021/11/10 10:40:49;;;;;;;9.60;2.63;;;;;;;-149.78;100.00;50424.50;5063051;28;20403;-63
2021/11/10 10:43:15;;;;;;;8.05;2.90;;;;;;;-149.78;100.00;50385.38;5066601;28;20021;-63
2021/11/10 10:45:48;;;;;;;6.25;2.88;;;;;;;-149.78;100.00;50424.50;5060421;28;20473;-64
2021/11/10 10:48:16;;;;;;;5.93;2.42;;;;;;;-149.78;100.00;50385.38;5070343;28;20024;-63
2021/11/10 10:50:42;;;;;;;8.05;3.00;;;;;;;-149.78;100.00;50401.03;5068180;28;20035;-63
2021/11/10 10:53:10;;;;;;;8.52;3.20;;;;;;;-149.78;100.00;50414.72;5067333;28;20032;-63
2021/11/10 10:55:45;;;;;;;11.02;3.30;;;;;;;-149.78;100.00;50416.69;5069865;28;20056;-63
2021/11/10 10:58:28;;;;;;;8.60;3.72;;;;;;;-149.78;100.00;50401.03;5053863;28;20032;-63
2021/11/10 11:00:54;;;;;;;11.27;3.45;;;;;;;-149.78;100.00;50373.66;5064026;28;20057;-63
2021/11/10 11:03:20;;;;;;;10.70;4.07;;;;;;;-149.78;100.00;50416.69;5058256;28;20116;-63
2021/11/10 11:05:45;;;;;;;9.13;3.40;;;;;;;-149.78;100.00;50424.50;5070645;28;20067;-63
2021/11/10 11:08:34;;;;;;;8.40;3.20;;;;;;;-149.78;100.00;50393.22;5068990;28;20060;-63
2021/11/10 11:11:17;;;;;;;8.68;3.67;;;;;;;-149.78;100.00;50365.84;5071183;28;20047;-63
2021/11/10 11:13:53;;;;;;;5.80;2.95;;;;;;;-149.78;100.00;50338.44;5070208;28;20467;-63